Time;durP1;ratioP1;P1;durP2;ratioP2;P2;SDS_P1;SDS_P2;PMS_P1;PMS_P2;Temp;Humidity;BMP_temperature;BMP_pressure;BME280_temperature;BME280_humidity;BME280_pressure;Samples;Min_cycle;Max_cycle;Signal;HPM_P1;HPM_P2
2022/12/08 04:02:01;;;;;;;;;;;4.10;99.90;;;;;;5438873;23;20069;-71
2022/12/08 04:04:28;;;;;;;;;;;4.10;99.90;;;;;;4963865;28;19966;-73
2022/12/08 04:06:55;;;;;;;;;;;4.10;99.90;;;;;;4960269;28;20037;-71
2022/12/08 04:09:21;;;;;;;;;;;4.00;99.90;;;;;;4968237;28;20012;-70
2022/12/08 04:11:51;;;;;;;;;;;4.00;99.90;;;;;;4958569;28;19970;-70
2022/12/08 04:14:18;;;;;;;;;;;4.00;99.90;;;;;;4961696;28;19930;-71
2022/12/08 04:16:45;;;;;;;;;;;4.10;99.90;;;;;;4966137;28;19926;-69
2022/12/08 04:19:13;;;;;;;;;;;4.10;99.90;;;;;;4956236;28;19934;-71
2022/12/08 04:21:40;;;;;;;;;;;4.10;99.90;;;;;;4965680;28;19926;-71
2022/12/08 04:24:07;;;;;;;;;;;4.10;99.90;;;;;;4965111;28;19926;-70
2022/12/08 04:26:34;;;;;;;;;;;4.10;99.90;;;;;;4962874;28;20352;-70
2022/12/08 04:29:01;;;;;;;;;;;4.10;99.90;;;;;;4957158;28;20302;-69
2022/12/08 04:31:28;;;;;;;;;;;4.10;99.90;;;;;;4965042;28;19934;-70
2022/12/08 04:33:54;;;;;;;;;;;4.10;99.90;;;;;;4966533;28;19981;-71
2022/12/08 04:36:22;;;;;;;;;;;4.10;99.90;;;;;;4965454;28;19926;-71
2022/12/08 04:38:49;;;;;;;;;;;4.10;99.90;;;;;;4966728;28;19930;-69
2022/12/08 04:41:16;;;;;;;;;;;4.20;99.90;;;;;;4955018;28;19927;-70
2022/12/08 04:43:43;;;;;;;;;;;4.20;99.90;;;;;;4961687;28;20345;-71
2022/12/08 04:46:10;;;;;;;;;;;4.20;99.90;;;;;;4967385;28;20329;-69
2022/12/08 04:48:37;;;;;;;;;;;4.20;99.90;;;;;;4966298;28;20532;-71
2022/12/08 04:51:04;;;;;;;;;;;4.20;99.90;;;;;;4964567;28;19954;-71
2022/12/08 04:53:33;;;;;;;;;;;4.20;99.90;;;;;;4954523;28;19930;-69
2022/12/08 04:56:00;;;;;;;;;;;4.20;99.90;;;;;;4968058;28;19949;-70
2022/12/08 04:58:26;;;;;;;;;;;4.20;99.90;;;;;;4953951;28;19931;-70
2022/12/08 05:00:53;;;;;;;;;;;4.20;99.90;;;;;;4968313;28;19981;-70
2022/12/08 05:03:20;;;;;;;;;;;4.20;99.90;;;;;;4951179;29;19985;-69
2022/12/08 05:05:47;;;;;;;;;;;4.20;99.90;;;;;;4954441;28;20405;-71
2022/12/08 05:08:13;;;;;;;;;;;4.20;99.90;;;;;;4966900;28;20009;-70
2022/12/08 05:10:42;;;;;;;;;;;4.20;99.90;;;;;;4954107;28;20368;-71
2022/12/08 05:13:08;;;;;;;;;;;4.20;99.90;;;;;;4962329;28;20344;-67
2022/12/08 05:15:35;;;;;;;;;;;4.20;99.90;;;;;;4954878;28;19954;-69
2022/12/08 05:18:02;;;;;;;;;;;4.10;99.90;;;;;;4968289;28;20397;-68
2022/12/08 05:20:29;;;;;;;;;;;4.10;99.90;;;;;;4960971;28;19930;-69
2022/12/08 05:22:55;;;;;;;;;;;4.10;99.90;;;;;;4954300;28;20386;-69
2022/12/08 05:25:22;;;;;;;;;;;4.10;99.90;;;;;;4964438;28;20385;-68
2022/12/08 05:27:50;;;;;;;;;;;4.10;99.90;;;;;;4962168;28;19938;-70
2022/12/08 05:30:17;;;;;;;;;;;4.10;99.90;;;;;;4955596;28;19973;-69
2022/12/08 05:32:44;;;;;;;;;;;4.10;99.90;;;;;;4956763;28;19973;-68
2022/12/08 05:35:11;;;;;;;;;;;4.10;99.90;;;;;;4967417;28;19926;-68
2022/12/08 05:37:37;;;;;;;;;;;4.10;99.90;;;;;;4958793;28;19926;-69
2022/12/08 05:40:04;;;;;;;;;;;4.10;99.90;;;;;;4962245;28;20397;-68
2022/12/08 05:42:31;;;;;;;;;;;4.10;99.90;;;;;;4962077;28;19927;-68
2022/12/08 05:44:59;;;;;;;;;;;4.10;99.90;;;;;;4961370;28;19934;-69
2022/12/08 05:47:26;;;;;;;;;;;4.00;99.90;;;;;;4964846;28;19926;-68
2022/12/08 05:49:53;;;;;;;;;;;4.10;99.90;;;;;;4961771;28;19931;-68
2022/12/08 05:52:20;;;;;;;;;;;4.10;99.90;;;;;;4961392;28;19937;-68
2022/12/08 05:54:46;;;;;;;;;;;4.10;99.90;;;;;;4961294;28;20356;-69
2022/12/08 05:57:13;;;;;;;;;;;4.00;99.90;;;;;;4960448;28;19926;-69
2022/12/08 05:59:40;;;;;;;;;;;4.00;99.90;;;;;;4961299;28;20361;-69
2022/12/08 06:02:08;;;;;;;;;;;4.00;99.90;;;;;;4956779;28;19926;-74
2022/12/08 06:04:35;;;;;;;;;;;4.00;99.90;;;;;;4955895;28;19977;-75
2022/12/08 06:07:02;;;;;;;;;;;4.00;99.90;;;;;;4960962;28;20352;-68
2022/12/08 06:09:29;;;;;;;;;;;4.00;99.90;;;;;;4963179;28;19933;-67
2022/12/08 06:11:55;;;;;;;;;;;4.00;99.90;;;;;;4961535;28;19927;-69
2022/12/08 06:14:22;;;;;;;;;;;4.00;99.90;;;;;;4961916;28;19981;-72
2022/12/08 06:16:49;;;;;;;;;;;4.00;99.90;;;;;;4961017;28;19926;-68
2022/12/08 06:19:17;;;;;;;;;;;4.00;99.90;;;;;;4959939;28;19959;-69
2022/12/08 06:21:44;;;;;;;;;;;4.00;99.90;;;;;;4944939;28;19998;-70
2022/12/08 06:24:11;;;;;;;;;;;3.90;99.90;;;;;;4953271;28;19930;-69
2022/12/08 06:26:40;;;;;;;;;;;3.90;99.90;;;;;;4960654;28;19927;-69
2022/12/08 06:29:06;;;;;;;;;;;3.90;99.90;;;;;;4960703;28;19926;-69
2022/12/08 06:31:33;;;;;;;;;;;3.80;99.90;;;;;;4956319;28;19962;-69
2022/12/08 06:34:00;;;;;;;;;;;3.80;99.90;;;;;;4959653;28;19927;-69
2022/12/08 06:36:28;;;;;;;;;;;3.80;99.90;;;;;;4953772;28;19927;-69
2022/12/08 06:38:55;;;;;;;;;;;3.70;99.90;;;;;;4951251;28;20053;-68
2022/12/08 06:41:22;;;;;;;;;;;3.70;99.90;;;;;;4955389;28;19926;-69
2022/12/08 06:43:48;;;;;;;;;;;3.70;99.90;;;;;;4960085;28;19926;-68
2022/12/08 06:46:17;;;;;;;;;;;3.70;99.90;;;;;;4959846;28;19981;-68
2022/12/08 06:48:43;;;;;;;;;;;3.70;99.90;;;;;;4960416;28;19980;-69
2022/12/08 06:51:11;;;;;;;;;;;3.70;99.90;;;;;;4954498;28;20330;-69
2022/12/08 06:53:40;;;;;;;;;;;3.70;99.90;;;;;;4961849;28;19926;-69
2022/12/08 06:56:07;;;;;;;;;;;3.70;99.90;;;;;;4961627;28;19926;-68
2022/12/08 06:58:34;;;;;;;;;;;3.70;99.90;;;;;;4962696;28;20368;-70
2022/12/08 07:01:03;;;;;;;;;;;3.70;99.90;;;;;;4962667;28;19926;-68
2022/12/08 07:03:30;;;;;;;;;;;3.70;99.90;;;;;;4961805;28;19984;-69
2022/12/08 07:05:57;;;;;;;;;;;3.70;99.90;;;;;;4958443;28;20352;-69
2022/12/08 07:08:24;;;;;;;;;;;3.70;99.90;;;;;;4960206;28;19934;-68
2022/12/08 07:10:52;;;;;;;;;;;3.60;99.90;;;;;;4960188;28;19971;-69
2022/12/08 07:13:19;;;;;;;;;;;3.60;99.90;;;;;;4956051;28;19926;-70
2022/12/08 07:15:45;;;;;;;;;;;3.60;99.90;;;;;;4960157;28;19926;-68
2022/12/08 07:18:12;;;;;;;;;;;3.50;99.90;;;;;;4958891;28;19937;-67
2022/12/08 07:20:39;;;;;;;;;;;3.50;99.90;;;;;;4959091;28;19966;-69
2022/12/08 07:23:06;;;;;;;;;;;3.40;99.90;;;;;;4961275;28;19973;-69
2022/12/08 07:25:33;;;;;;;;;;;3.40;99.90;;;;;;4965986;28;19934;-69
2022/12/08 07:28:01;;;;;;;;;;;3.50;99.90;;;;;;4965045;28;19930;-69
2022/12/08 07:30:28;;;;;;;;;;;3.50;99.90;;;;;;4964671;28;20389;-70
2022/12/08 07:32:54;;;;;;;;;;;3.50;99.90;;;;;;4961719;28;20345;-68
2022/12/08 07:35:21;;;;;;;;;;;3.50;99.90;;;;;;4958627;28;19982;-68
2022/12/08 07:37:48;;;;;;;;;;;3.50;99.90;;;;;;4962028;28;19937;-68
2022/12/08 07:40:15;;;;;;;;;;;3.50;99.90;;;;;;4962118;28;20362;-68
2022/12/08 07:42:41;;;;;;;;;;;3.50;99.90;;;;;;4961452;28;19950;-67
2022/12/08 07:45:10;;;;;;;;;;;3.50;99.90;;;;;;4962858;28;19930;-70
2022/12/08 07:47:37;;;;;;;;;;;3.40;99.90;;;;;;4968458;28;19930;-70
2022/12/08 07:50:04;;;;;;;;;;;3.40;99.90;;;;;;4963507;28;19966;-69
2022/12/08 07:52:31;;;;;;;;;;;3.40;99.90;;;;;;4966005;28;19930;-70
2022/12/08 07:54:58;;;;;;;;;;;3.30;99.90;;;;;;4965083;28;19930;-67
2022/12/08 07:57:24;;;;;;;;;;;3.40;99.90;;;;;;4961932;28;20341;-69
2022/12/08 07:59:51;;;;;;;;;;;3.40;99.90;;;;;;4962676;28;19926;-69
2022/12/08 08:02:19;;;;;;;;;;;3.40;99.90;;;;;;4961205;28;19926;-69
2022/12/08 08:04:49;;;;;;;;;;;3.40;99.90;;;;;;4950824;28;20460;-69
2022/12/08 08:07:16;;;;;;;;;;;3.40;99.90;;;;;;4962805;28;19956;-69
2022/12/08 08:09:42;;;;;;;;;;;3.40;99.90;;;;;;4961432;28;19985;-71
2022/12/08 08:12:09;;;;;;;;;;;3.40;99.90;;;;;;4963610;28;19930;-68
2022/12/08 08:14:36;;;;;;;;;;;3.40;99.90;;;;;;4964056;28;19930;-68
2022/12/08 08:17:03;;;;;;;;;;;3.40;99.90;;;;;;4963337;28;19926;-69
2022/12/08 08:19:31;;;;;;;;;;;3.30;99.90;;;;;;4963598;28;20008;-69
2022/12/08 08:21:58;;;;;;;;;;;3.30;99.90;;;;;;4963656;28;19926;-69
2022/12/08 08:24:25;;;;;;;;;;;3.30;99.90;;;;;;4959422;28;19926;-69
2022/12/08 08:26:54;;;;;;;;;;;3.30;99.90;;;;;;4964256;28;20282;-69
2022/12/08 08:29:21;;;;;;;;;;;3.30;99.90;;;;;;4959520;28;19945;-68
2022/12/08 08:31:47;;;;;;;;;;;3.40;99.90;;;;;;4960258;28;19961;-69
2022/12/08 08:34:15;;;;;;;;;;;3.40;99.90;;;;;;4958904;28;20469;-69
2022/12/08 08:36:43;;;;;;;;;;;3.40;99.90;;;;;;4962189;28;19926;-69
2022/12/08 08:39:10;;;;;;;;;;;3.40;99.90;;;;;;4955164;28;20467;-69
2022/12/08 08:41:37;;;;;;;;;;;3.40;99.90;;;;;;4961390;28;19926;-68
2022/12/08 08:44:04;;;;;;;;;;;3.40;99.90;;;;;;4960744;28;19930;-69
2022/12/08 08:46:30;;;;;;;;;;;3.40;99.90;;;;;;4959418;28;19970;-68
2022/12/08 08:48:57;;;;;;;;;;;3.40;99.90;;;;;;4962126;28;20329;-68
2022/12/08 08:51:24;;;;;;;;;;;3.40;99.90;;;;;;4956280;28;19930;-68
2022/12/08 08:53:52;;;;;;;;;;;3.30;99.90;;;;;;4958228;28;20020;-68
2022/12/08 08:56:20;;;;;;;;;;;3.10;99.90;;;;;;4955684;28;19927;-69
2022/12/08 08:58:47;;;;;;;;;;;3.10;99.90;;;;;;4953296;28;20010;-68
2022/12/08 09:01:14;;;;;;;;;;;3.00;99.90;;;;;;4961599;28;19970;-68
2022/12/08 09:03:41;;;;;;;;;;;2.90;99.90;;;;;;4958147;28;19931;-69
2022/12/08 09:06:08;;;;;;;;;;;2.90;99.90;;;;;;4955771;28;20421;-68
2022/12/08 09:08:35;;;;;;;;;;;3.00;99.90;;;;;;4955521;28;19927;-68
2022/12/08 09:11:03;;;;;;;;;;;3.00;99.90;;;;;;4957570;28;19977;-69
2022/12/08 09:13:30;;;;;;;;;;;3.10;99.90;;;;;;4961264;28;20366;-67
2022/12/08 09:15:56;;;;;;;;;;;3.10;99.90;;;;;;4956037;28;20366;-68
2022/12/08 09:18:23;;;;;;;;;;;3.20;99.90;;;;;;4962694;28;19926;-69
2022/12/08 09:20:50;;;;;;;;;;;3.20;99.90;;;;;;4955197;28;20513;-69
2022/12/08 09:23:17;;;;;;;;;;;3.20;99.90;;;;;;4965294;28;20404;-68
2022/12/08 09:25:43;;;;;;;;;;;3.20;99.90;;;;;;4964729;28;19950;-69
2022/12/08 09:28:12;;;;;;;;;;;3.30;99.90;;;;;;4962257;28;19927;-68
2022/12/08 09:30:38;;;;;;;;;;;3.30;99.90;;;;;;4961449;28;19926;-68
2022/12/08 09:33:08;;;;;;;;;;;3.30;99.90;;;;;;4960826;28;19926;-68
2022/12/08 09:35:35;;;;;;;;;;;3.40;99.90;;;;;;4957181;28;19926;-69
2022/12/08 09:38:01;;;;;;;;;;;3.40;99.90;;;;;;4956900;28;19926;-69
2022/12/08 09:40:29;;;;;;;;;;;3.40;99.90;;;;;;4960056;28;20401;-69
2022/12/08 09:43:01;;;;;;;;;;;3.50;99.90;;;;;;4958687;28;19926;-69
2022/12/08 09:45:33;;;;;;;;;;;3.50;99.90;;;;;;4965568;28;20333;-69
2022/12/08 09:48:02;;;;;;;;;;;3.60;99.90;;;;;;4961903;28;19981;-68
2022/12/08 09:50:31;;;;;;;;;;;3.60;99.90;;;;;;4963922;28;19926;-68
2022/12/08 09:53:02;;;;;;;;;;;3.60;99.90;;;;;;4962550;28;19930;-66
2022/12/08 09:55:36;;;;;;;;;;;3.60;99.90;;;;;;4959010;28;19926;-69
2022/12/08 09:58:04;;;;;;;;;;;3.70;99.90;;;;;;4956423;28;20398;-68
2022/12/08 10:00:34;;;;;;;;;;;3.70;99.90;;;;;;4956862;28;20409;-68
2022/12/08 10:03:00;;;;;;;;;;;3.70;99.90;;;;;;4962571;28;19930;-69
2022/12/08 10:05:28;;;;;;;;;;;3.70;99.90;;;;;;4958795;28;19926;-68
2022/12/08 10:08:01;;;;;;;;;;;3.80;99.90;;;;;;4957289;28;19930;-67
2022/12/08 10:10:33;;;;;;;;;;;3.80;99.90;;;;;;4962227;28;19926;-66
2022/12/08 10:13:03;;;;;;;;;;;3.80;99.90;;;;;;4962705;28;19949;-68
2022/12/08 10:15:35;;;;;;;;;;;3.80;99.90;;;;;;4956101;28;19926;-68
2022/12/08 10:18:03;;;;;;;;;;;3.80;99.90;;;;;;4963510;28;19981;-68
2022/12/08 10:20:35;;;;;;;;;;;3.90;99.90;;;;;;4955843;28;19978;-69
2022/12/08 10:23:07;;;;;;;;;;;3.80;99.90;;;;;;4956462;28;20341;-70
2022/12/08 10:25:36;;;;;;;;;;;3.90;99.90;;;;;;4955072;28;20436;-69
2022/12/08 10:28:03;;;;;;;;;;;3.90;99.90;;;;;;4958089;28;19978;-69
2022/12/08 10:30:31;;;;;;;;;;;3.90;99.90;;;;;;4957079;28;19930;-67
2022/12/08 10:33:00;;;;;;;;;;;4.00;99.90;;;;;;4958758;28;19986;-68
2022/12/08 10:35:41;;;;;;;;;;;4.00;99.90;;;;;;4956761;28;19926;-68
2022/12/08 10:38:16;;;;;;;;;;;4.00;99.90;;;;;;4956757;28;19978;-69
2022/12/08 10:40:43;;;;;;;;;;;3.90;99.90;;;;;;4960216;28;19977;-70
2022/12/08 10:43:13;;;;;;;;;;;3.90;99.90;;;;;;4955453;28;19961;-69
2022/12/08 10:45:42;;;;;;;;;;;3.90;99.90;;;;;;4965969;28;19969;-70
2022/12/08 10:48:14;;;;;;;;;;;4.00;99.90;;;;;;4958624;28;19933;-69
2022/12/08 10:50:42;;;;;;;;;;;4.00;99.90;;;;;;4966036;28;19954;-70
2022/12/08 10:53:13;;;;;;;;;;;4.10;99.90;;;;;;4954008;28;20397;-69
2022/12/08 10:55:41;;;;;;;;;;;4.20;99.90;;;;;;4952914;28;19986;-69
2022/12/08 10:58:23;;;;;;;;;;;4.30;99.90;;;;;;4960749;28;19930;-69
2022/12/08 11:00:50;;;;;;;;;;;4.30;99.90;;;;;;4952323;28;19934;-69
2022/12/08 11:03:22;;;;;;;;;;;4.40;99.90;;;;;;4967630;28;19978;-69
2022/12/08 11:05:49;;;;;;;;;;;4.50;99.90;;;;;;4957519;28;19930;-71
2022/12/08 11:08:16;;;;;;;;;;;4.50;99.90;;;;;;4947787;28;19981;-66
2022/12/08 11:10:44;;;;;;;;;;;4.50;99.90;;;;;;4959173;28;20437;-69
2022/12/08 11:13:16;;;;;;;;;;;4.60;99.90;;;;;;4955151;28;19977;-69
2022/12/08 11:15:44;;;;;;;;;;;4.60;99.90;;;;;;4962574;28;19926;-71
2022/12/08 11:18:21;;;;;;;;;;;4.60;99.90;;;;;;4960080;28;19927;-69
2022/12/08 11:20:55;;;;;;;;;;;4.70;99.90;;;;;;4959228;28;20340;-69
2022/12/08 11:23:24;;;;;;;;;;;4.70;99.90;;;;;;4958096;28;19926;-68
2022/12/08 11:25:51;;;;;;;;;;;4.70;99.90;;;;;;4956555;28;19926;-69
2022/12/08 11:28:21;;;;;;;;;;;4.70;99.90;;;;;;4958518;28;19930;-69
2022/12/08 11:30:53;;;;;;;;;;;4.70;99.90;;;;;;4960093;28;19986;-69
2022/12/08 11:33:21;;;;;;;;;;;4.80;99.90;;;;;;4973864;28;19933;-69
2022/12/08 11:35:52;;;;;;;;;;;4.80;99.90;;;;;;4954602;28;19927;-70
2022/12/08 11:38:21;;;;;;;;;;;4.80;99.90;;;;;;4959360;28;19926;-69
2022/12/08 11:40:48;;;;;;;;;;;4.80;99.90;;;;;;4958847;28;20017;-69
2022/12/08 11:43:16;;;;;;;;;;;4.80;99.90;;;;;;4955878;28;19934;-69
2022/12/08 11:45:43;;;;;;;;;;;4.80;99.90;;;;;;4960498;28;20341;-70
2022/12/08 11:48:13;;;;;;;;;;;4.80;99.90;;;;;;4963425;28;19965;-68
2022/12/08 11:50:42;;;;;;;;;;;4.80;99.90;;;;;;4962991;28;20341;-68
2022/12/08 11:53:14;;;;;;;;;;;4.80;99.90;;;;;;4952529;28;20021;-70
2022/12/08 11:55:43;;;;;;;;;;;4.80;99.90;;;;;;4957998;28;19926;-69
2022/12/08 11:58:14;;;;;;;;;;;4.80;99.90;;;;;;4954337;28;19949;-69
2022/12/08 12:00:41;;;;;;;;;;;4.80;99.90;;;;;;4958031;28;19945;-69
2022/12/08 12:03:12;;;;;;;;;;;4.70;99.90;;;;;;4963012;28;20413;-69
2022/12/08 12:05:45;;;;;;;;;;;4.80;99.90;;;;;;4961538;28;19926;-68
2022/12/08 12:08:20;;;;;;;;;;;4.80;99.90;;;;;;4963701;28;19998;-68
2022/12/08 12:10:52;;;;;;;;;;;4.80;99.90;;;;;;4958473;28;20408;-69
2022/12/08 12:13:30;;;;;;;;;;;4.90;99.90;;;;;;4967747;28;19926;-68
2022/12/08 12:16:17;;;;;;;;;;;4.90;99.90;;;;;;4962271;28;20075;-69
2022/12/08 12:18:45;;;;;;;;;;;5.00;99.90;;;;;;4965749;28;19927;-68
2022/12/08 12:21:17;;;;;;;;;;;5.10;99.90;;;;;;4965071;28;19926;-70
2022/12/08 12:23:47;;;;;;;;;;;5.30;99.90;;;;;;4967346;28;19965;-69
2022/12/08 12:26:18;;;;;;;;;;;5.40;99.90;;;;;;4965768;28;20357;-69
2022/12/08 12:28:48;;;;;;;;;;;5.60;99.90;;;;;;4964761;28;19933;-69
2022/12/08 12:31:16;;;;;;;;;;;5.70;99.90;;;;;;4969179;28;19988;-70
2022/12/08 12:33:44;;;;;;;;;;;6.00;99.90;;;;;;4966372;28;19926;-70
2022/12/08 12:36:11;;;;;;;;;;;6.30;99.90;;;;;;4955888;28;19926;-69
2022/12/08 12:41:27;;;;;;;;;;;6.30;99.90;;;;;;4956438;28;19923;-71
2022/12/08 12:44:08;;;;;;;;;;;8.10;99.90;;;;;;4965593;28;19956;-70
2022/12/08 12:46:42;;;;;;;;;;;7.60;99.90;;;;;;4958896;28;20349;-69
2022/12/08 12:49:27;;;;;;;;;;;7.20;99.90;;;;;;4962602;28;20397;-70
2022/12/08 12:51:54;;;;;;;;;;;6.60;99.90;;;;;;4960258;28;20385;-71
2022/12/08 12:54:22;;;;;;;;;;;6.50;99.90;;;;;;4960910;28;19927;-70
2022/12/08 12:56:53;;;;;;;;;;;6.40;99.90;;;;;;4960359;28;20397;-70
2022/12/08 12:59:32;;;;;;;;;;;6.30;99.90;;;;;;4960020;28;20425;-69
2022/12/08 13:02:01;;;;;;;;;;;6.10;99.90;;;;;;4957784;28;19978;-70
2022/12/08 13:04:33;;;;;;;;;;;6.10;99.90;;;;;;4960590;28;19926;-70
2022/12/08 13:07:00;;;;;;;;;;;6.10;99.90;;;;;;4961015;28;19997;-70
2022/12/08 13:09:29;;;;;;;;;;;6.10;99.90;;;;;;4961944;28;20424;-70
2022/12/08 13:11:59;;;;;;;;;;;5.80;99.90;;;;;;4956485;28;19934;-70
2022/12/08 13:14:27;;;;;;;;;;;5.70;99.90;;;;;;4960903;28;19926;-68
2022/12/08 13:16:54;;;;;;;;;;;5.50;99.90;;;;;;4958901;28;19926;-69
2022/12/08 13:19:22;;;;;;;;;;;5.50;99.90;;;;;;4959476;28;19934;-70
2022/12/08 13:21:49;;;;;;;;;;;5.40;99.90;;;;;;4962297;28;19926;-71
2022/12/08 13:24:26;;;;;;;;;;;5.30;99.90;;;;;;4959340;28;19926;-69
2022/12/08 13:27:24;;;;;;;;;;;5.20;99.90;;;;;;4957042;28;19930;-70
2022/12/08 13:30:18;;;;;;;;;;;5.20;99.90;;;;;;4955980;28;19930;-70
2022/12/08 13:33:00;;;;;;;;;;;5.00;99.90;;;;;;4960433;28;20393;-69
2022/12/08 13:35:27;;;;;;;;;;;5.00;99.90;;;;;;4958082;28;19938;-70
2022/12/08 13:37:54;;;;;;;;;;;5.00;99.90;;;;;;4958231;28;20001;-70
2022/12/08 13:40:23;;;;;;;;;;;5.00;99.90;;;;;;4955287;28;20389;-71
2022/12/08 13:42:57;;;;;;;;;;;4.90;99.90;;;;;;4960014;28;19926;-70
2022/12/08 13:45:25;;;;;;;;;;;4.90;99.90;;;;;;4960660;28;19926;-71
2022/12/08 13:47:56;;;;;;;;;;;4.90;99.90;;;;;;4960522;28;20374;-68
2022/12/08 13:50:25;;;;;;;;;;;4.90;99.90;;;;;;4953011;28;20443;-69
2022/12/08 13:52:54;;;;;;;;;;;4.80;99.90;;;;;;4959354;28;19926;-70
2022/12/08 13:55:25;;;;;;;;;;;4.80;99.90;;;;;;4960911;28;19926;-69
2022/12/08 13:57:54;;;;;;;;;;;4.80;99.90;;;;;;4963315;28;19962;-68
2022/12/08 14:00:22;;;;;;;;;;;4.80;99.90;;;;;;4956382;28;19926;-69
2022/12/08 14:02:50;;;;;;;;;;;4.70;99.90;;;;;;4955710;28;20413;-69
2022/12/08 14:05:17;;;;;;;;;;;4.70;99.90;;;;;;4962762;28;19926;-69
2022/12/08 14:07:46;;;;;;;;;;;4.70;99.90;;;;;;4958036;28;20393;-69
2022/12/08 14:10:16;;;;;;;;;;;4.70;99.90;;;;;;4961859;28;19926;-71
2022/12/08 14:12:45;;;;;;;;;;;4.80;99.90;;;;;;4966487;28;19926;-74
2022/12/08 14:15:13;;;;;;;;;;;5.10;99.90;;;;;;4963279;28;19926;-69
2022/12/08 14:17:41;;;;;;;;;;;5.80;99.90;;;;;;4962916;28;20451;-68
2022/12/08 14:20:18;;;;;;;;;;;6.60;99.90;;;;;;4963362;28;19934;-70
2022/12/08 14:22:46;;;;;;;;;;;7.40;99.90;;;;;;4963635;28;19931;-70
2022/12/08 14:25:14;;;;;;;;;;;8.20;99.90;;;;;;4959138;28;19927;-69
2022/12/08 14:27:41;;;;;;;;;;;8.60;99.90;;;;;;4959462;28;19930;-68
2022/12/08 14:30:15;;;;;;;;;;;8.50;99.90;;;;;;4959858;28;19927;-70
2022/12/08 14:32:44;;;;;;;;;;;8.50;99.90;;;;;;4959842;28;19930;-68
2022/12/08 14:35:19;;;;;;;;;;;8.70;99.90;;;;;;4965688;28;19926;-70
2022/12/08 14:37:48;;;;;;;;;;;8.90;99.90;;;;;;4960564;28;19926;-69
2022/12/08 14:40:19;;;;;;;;;;;8.80;99.90;;;;;;4957199;28;19970;-68
2022/12/08 14:42:47;;;;;;;;;;;8.60;99.90;;;;;;4960019;28;19926;-69
2022/12/08 14:45:15;;;;;;;;;;;8.10;99.90;;;;;;4959316;28;19949;-69
2022/12/08 14:47:42;;;;;;;;;;;7.40;99.90;;;;;;4958223;28;20327;-68
2022/12/08 14:50:28;;;;;;;;;;;7.30;99.90;;;;;;4957563;28;19938;-69
2022/12/08 14:52:56;;;;;;;;;;;7.30;99.90;;;;;;4955699;28;19934;-67
2022/12/08 14:55:23;;;;;;;;;;;6.60;99.90;;;;;;4961437;28;19933;-72
2022/12/08 14:57:50;;;;;;;;;;;6.00;99.90;;;;;;4961963;28;19933;-71
2022/12/08 15:00:19;;;;;;;;;;;5.80;99.90;;;;;;4957411;28;19927;-69
2022/12/08 15:02:46;;;;;;;;;;;5.50;99.90;;;;;;4959698;28;19930;-72
2022/12/08 15:05:15;;;;;;;;;;;5.20;99.90;;;;;;4960167;28;19977;-71
2022/12/08 15:07:47;;;;;;;;;;;5.10;99.90;;;;;;4961292;28;19932;-70
2022/12/08 15:10:29;;;;;;;;;;;4.90;99.90;;;;;;4958029;28;19927;-70
2022/12/08 15:13:01;;;;;;;;;;;4.60;99.90;;;;;;4960445;28;19926;-70
2022/12/08 15:15:28;;;;;;;;;;;4.40;99.90;;;;;;4961429;28;19930;-70
2022/12/08 15:18:01;;;;;;;;;;;4.20;99.90;;;;;;4962068;28;19934;-71
2022/12/08 15:20:32;;;;;;;;;;;4.10;99.90;;;;;;4960559;28;19926;-70
2022/12/08 15:22:59;;;;;;;;;;;4.00;99.90;;;;;;4961126;28;19953;-69
2022/12/08 15:25:26;;;;;;;;;;;3.90;99.90;;;;;;4956201;28;19930;-71
2022/12/08 15:27:55;;;;;;;;;;;3.80;99.90;;;;;;4952805;28;19926;-71
2022/12/08 15:30:22;;;;;;;;;;;3.70;99.90;;;;;;4952321;28;19926;-71
2022/12/08 15:32:51;;;;;;;;;;;3.60;99.90;;;;;;4958236;28;20311;-72
2022/12/08 15:35:17;;;;;;;;;;;3.60;99.90;;;;;;4958617;28;19981;-70
2022/12/08 15:37:45;;;;;;;;;;;3.50;99.90;;;;;;4959515;28;19926;-70
2022/12/08 15:40:16;;;;;;;;;;;3.40;99.90;;;;;;4961274;28;19926;-71
2022/12/08 15:42:43;;;;;;;;;;;3.30;99.90;;;;;;4958589;28;19927;-72
2022/12/08 15:45:13;;;;;;;;;;;3.20;99.90;;;;;;4958195;28;19966;-70
2022/12/08 15:47:41;;;;;;;;;;;3.20;99.90;;;;;;4958684;28;19926;-70
2022/12/08 15:50:14;;;;;;;;;;;3.10;99.90;;;;;;4962151;28;19927;-71
2022/12/08 15:52:40;;;;;;;;;;;3.00;99.90;;;;;;4960074;28;19933;-72
2022/12/08 15:55:11;;;;;;;;;;;3.00;99.90;;;;;;4961226;28;19926;-71
2022/12/08 15:57:38;;;;;;;;;;;3.00;99.90;;;;;;4963604;28;20389;-71
2022/12/08 16:00:05;;;;;;;;;;;3.00;99.90;;;;;;4959399;28;19927;-70
2022/12/08 16:02:33;;;;;;;;;;;3.00;99.90;;;;;;4987733;23;19937;-70
2022/12/08 16:05:00;;;;;;;;;;;3.00;99.90;;;;;;4954538;28;20024;-72
2022/12/08 16:07:28;;;;;;;;;;;3.10;99.90;;;;;;4963271;28;20352;-70
2022/12/08 16:09:55;;;;;;;;;;;3.10;99.90;;;;;;4960301;28;19976;-70
2022/12/08 16:15:07;;;;;;;;;;;3.10;99.90;;;;;;4960505;28;20405;-69
2022/12/08 16:17:36;;;;;;;;;;;3.10;99.90;;;;;;4963024;28;19927;-73
2022/12/08 16:20:03;;;;;;;;;;;3.00;99.90;;;;;;4958144;28;19930;-69
2022/12/08 16:22:31;;;;;;;;;;;3.00;99.90;;;;;;4963270;28;19926;-69
2022/12/08 16:24:58;;;;;;;;;;;3.00;99.90;;;;;;4961511;28;19962;-69
2022/12/08 16:27:27;;;;;;;;;;;2.90;99.90;;;;;;4956578;28;20333;-69
2022/12/08 16:29:55;;;;;;;;;;;2.80;99.90;;;;;;4966308;28;20312;-69
2022/12/08 16:32:22;;;;;;;;;;;2.70;99.90;;;;;;4962256;28;19926;-68
2022/12/08 16:34:50;;;;;;;;;;;2.60;99.90;;;;;;4962878;28;19977;-69
2022/12/08 16:37:17;;;;;;;;;;;2.60;99.90;;;;;;4958280;28;20460;-68
2022/12/08 16:39:44;;;;;;;;;;;2.50;99.90;;;;;;4960687;28;19938;-68
2022/12/08 16:44:57;;;;;;;;;;;2.30;99.90;;;;;;4956360;28;20416;-69
2022/12/08 16:47:23;;;;;;;;;;;2.30;99.90;;;;;;4962462;28;19965;-68
2022/12/08 16:49:52;;;;;;;;;;;2.30;99.90;;;;;;4963825;28;19926;-68
2022/12/08 16:52:18;;;;;;;;;;;2.30;99.90;;;;;;4961687;28;19926;-68
2022/12/08 16:54:45;;;;;;;;;;;2.30;99.90;;;;;;4958397;28;20461;-68
2022/12/08 16:57:12;;;;;;;;;;;2.30;99.90;;;;;;4965114;28;19927;-68
2022/12/08 16:59:39;;;;;;;;;;;2.20;99.90;;;;;;4959622;28;19934;-69
2022/12/08 17:02:06;;;;;;;;;;;2.30;99.90;;;;;;4958043;28;19934;-68
2022/12/08 17:04:33;;;;;;;;;;;2.30;99.90;;;;;;4960858;28;19927;-68
2022/12/08 17:07:01;;;;;;;;;;;2.40;99.90;;;;;;4960171;28;19926;-68
2022/12/08 17:09:30;;;;;;;;;;;2.40;99.90;;;;;;4959433;28;19930;-69
2022/12/08 17:11:57;;;;;;;;;;;2.40;99.90;;;;;;4960370;28;19930;-69
2022/12/08 17:14:24;;;;;;;;;;;2.30;99.90;;;;;;4964700;28;19930;-69
2022/12/08 17:16:50;;;;;;;;;;;2.30;99.90;;;;;;4965021;28;19930;-70
2022/12/08 17:19:17;;;;;;;;;;;2.20;99.90;;;;;;4961076;28;19926;-68
2022/12/08 17:21:44;;;;;;;;;;;2.20;99.90;;;;;;4962821;28;20377;-73
2022/12/08 17:24:13;;;;;;;;;;;2.10;99.90;;;;;;4954250;28;19926;-70
2022/12/08 17:26:39;;;;;;;;;;;2.10;99.90;;;;;;4963244;28;19930;-70
2022/12/08 17:29:06;;;;;;;;;;;2.00;99.90;;;;;;4957413;28;19926;-71
2022/12/08 17:31:33;;;;;;;;;;;2.00;99.90;;;;;;4963671;28;19930;-70
2022/12/08 17:34:00;;;;;;;;;;;2.00;99.90;;;;;;4960210;28;19931;-70
2022/12/08 17:36:27;;;;;;;;;;;2.00;99.90;;;;;;4958939;28;19935;-70
2022/12/08 17:38:53;;;;;;;;;;;2.00;99.90;;;;;;4960344;28;19927;-70
2022/12/08 17:41:22;;;;;;;;;;;2.10;99.90;;;;;;4953582;28;19973;-69
2022/12/08 17:43:48;;;;;;;;;;;2.00;99.90;;;;;;4962523;28;19930;-73
2022/12/08 17:46:16;;;;;;;;;;;2.00;99.90;;;;;;4960498;28;19989;-73
2022/12/08 17:48:43;;;;;;;;;;;1.90;99.90;;;;;;4963480;28;19925;-68
2022/12/08 17:51:10;;;;;;;;;;;1.80;99.90;;;;;;4958301;28;19961;-75
2022/12/08 17:53:38;;;;;;;;;;;1.80;99.90;;;;;;4958620;28;20394;-70
2022/12/08 17:56:07;;;;;;;;;;;1.80;99.90;;;;;;4964647;28;19926;-72
2022/12/08 17:58:35;;;;;;;;;;;1.80;99.90;;;;;;4959814;28;19969;-70
2022/12/08 18:01:06;;;;;;;;;;;1.90;99.90;;;;;;4962595;28;19959;-73
2022/12/08 18:03:33;;;;;;;;;;;1.90;99.90;;;;;;4958876;28;20350;-75
2022/12/08 18:06:03;;;;;;;;;;;1.90;99.90;;;;;;4962824;28;19930;-70
2022/12/08 18:08:30;;;;;;;;;;;1.90;99.90;;;;;;4960026;28;19927;-70
2022/12/08 18:10:57;;;;;;;;;;;2.00;99.90;;;;;;4960847;28;19930;-69
2022/12/08 18:13:24;;;;;;;;;;;2.10;99.90;;;;;;4957690;28;19938;-67
2022/12/08 18:15:52;;;;;;;;;;;2.10;99.90;;;;;;4959378;28;19973;-67
2022/12/08 18:18:21;;;;;;;;;;;2.10;99.90;;;;;;4960405;28;20428;-66
2022/12/08 18:20:48;;;;;;;;;;;2.20;99.90;;;;;;4961644;28;19926;-67
2022/12/08 18:23:15;;;;;;;;;;;2.20;99.90;;;;;;4960292;28;19934;-67
2022/12/08 18:25:42;;;;;;;;;;;2.30;99.90;;;;;;4960683;28;19934;-68
2022/12/08 18:28:09;;;;;;;;;;;2.40;99.90;;;;;;4979446;28;19926;-68
2022/12/08 18:30:37;;;;;;;;;;;2.40;99.90;;;;;;4957780;28;19926;-68
2022/12/08 18:33:05;;;;;;;;;;;2.40;99.90;;;;;;4962000;28;19927;-68
2022/12/08 18:35:34;;;;;;;;;;;2.40;99.90;;;;;;4960668;28;20199;-68
2022/12/08 18:38:01;;;;;;;;;;;2.40;99.90;;;;;;4957752;28;19977;-68
2022/12/08 18:40:28;;;;;;;;;;;2.40;99.90;;;;;;4960455;28;19973;-68
2022/12/08 18:42:54;;;;;;;;;;;2.40;99.90;;;;;;4961846;28;19926;-68
2022/12/08 18:45:21;;;;;;;;;;;2.40;99.90;;;;;;4964051;28;19926;-67
2022/12/08 18:47:48;;;;;;;;;;;2.50;99.90;;;;;;4960483;28;19988;-68